Time;durP1;ratioP1;P1;durP2;ratioP2;P2;SDS_P1;SDS_P2;PMS_P1;PMS_P2;Temp;Humidity;BMP_temperature;BMP_pressure;BME280_temperature;BME280_humidity;BME280_pressure;Samples;Min_cycle;Max_cycle;Signal;HPM_P1;HPM_P2
2021/12/19 00:01:27;;;;;;;141.30;37.25;;;;;;;-1.60;100.00;101974.38;6221395;23;20011;-90
2021/12/19 00:09:24;;;;;;;117.85;35.38;;;;;;;-1.77;100.00;101975.78;6225157;23;20012;-91
2021/12/19 00:12:27;;;;;;;93.38;36.25;;;;;;;-1.72;100.00;101966.94;6198061;23;20019;-88
2021/12/19 00:14:53;;;;;;;228.27;37.80;;;;;;;-1.83;100.00;101963.00;6211601;23;20043;-89
2021/12/19 00:17:18;;;;;;;138.82;37.53;;;;;;;-1.95;100.00;101946.03;6176410;23;20012;-91
2021/12/19 00:19:47;;;;;;;93.15;35.88;;;;;;;-1.76;100.00;101941.97;6220565;23;20051;-90
2021/12/19 00:22:18;;;;;;;195.65;37.38;;;;;;;-1.89;100.00;101943.25;6222382;23;20001;-91
2021/12/19 00:24:44;;;;;;;99.55;38.28;;;;;;;-1.95;100.00;101940.84;6222985;23;20004;-90
2021/12/19 00:27:14;;;;;;;97.30;35.25;;;;;;;-1.94;100.00;101932.16;6224039;23;20024;-90
2021/12/19 00:29:45;;;;;;;167.70;37.45;;;;;;;-2.00;100.00;101941.88;6198524;23;20393;-90
2021/12/19 00:32:15;;;;;;;100.53;35.40;;;;;;;-1.96;100.00;101939.16;6225541;23;20016;-88
2021/12/19 00:34:50;;;;;;;109.80;36.75;;;;;;;-1.99;100.00;101934.06;6206608;23;20056;-91
2021/12/19 00:37:19;;;;;;;83.05;34.13;;;;;;;-1.96;100.00;101939.16;6198355;23;20079;-90
2021/12/19 00:39:46;;;;;;;161.25;35.50;;;;;;;-2.04;100.00;101938.53;6224403;23;20013;-91
2021/12/19 00:44:54;;;;;;;94.23;34.53;;;;;;;-1.63;100.00;101932.88;6160037;23;20017;-89
2021/12/19 00:47:20;;;;;;;139.48;34.47;;;;;;;-1.80;100.00;101932.56;6160393;23;20010;-89
2021/12/19 00:49:45;;;;;;;163.35;35.47;;;;;;;-1.84;100.00;101923.19;6136160;23;20014;-89
2021/12/19 00:52:14;;;;;;;92.32;34.28;;;;;;;-1.89;100.00;101922.47;6161885;23;20010;-90
2021/12/19 00:54:40;;;;;;;90.80;34.92;;;;;;;-1.87;100.00;101912.88;6166028;23;20089;-88
2021/12/19 00:57:06;;;;;;;71.40;33.17;;;;;;;-1.87;100.00;101910.28;6164549;23;20096;-89
2021/12/19 00:59:31;;;;;;;77.63;32.72;;;;;;;-1.87;100.00;101915.47;6164438;23;20151;-90
2021/12/19 01:01:57;;;;;;;65.55;30.98;;;;;;;-1.74;100.00;101908.97;6164539;23;20468;-91
2021/12/19 01:04:22;;;;;;;72.28;31.70;;;;;;;-1.66;100.00;101906.97;6164606;23;20016;-87
2021/12/19 01:06:57;;;;;;;79.30;31.25;;;;;;;-1.85;100.00;101905.88;6138804;23;20084;-89
2021/12/19 01:09:22;;;;;;;83.85;31.10;;;;;;;-1.83;100.00;101909.28;6137386;23;20033;-90
2021/12/19 01:11:49;;;;;;;69.20;31.40;;;;;;;-1.98;100.00;101904.56;6161900;23;20036;-90
2021/12/19 01:14:16;;;;;;;62.97;30.67;;;;;;;-1.89;100.00;101898.25;6159732;23;20341;-89
2021/12/19 01:16:42;;;;;;;64.72;30.20;;;;;;;-2.04;100.00;101896.97;6159807;23;20083;-89
2021/12/19 01:19:11;;;;;;;67.22;30.02;;;;;;;-2.01;100.00;101894.28;6159252;23;20013;-88
2021/12/19 01:21:36;;;;;;;61.25;30.20;;;;;;;-2.01;100.00;101893.44;6158357;23;20077;-90
2021/12/19 01:24:03;;;;;;;62.45;31.17;;;;;;;-2.04;100.00;101889.19;6132522;23;20013;-89
2021/12/19 01:26:28;;;;;;;60.45;30.38;;;;;;;-2.14;100.00;101890.38;6159772;23;20016;-88
2021/12/19 01:28:55;;;;;;;63.15;31.65;;;;;;;-2.18;100.00;101891.34;6159866;23;20109;-88
2021/12/19 01:31:22;;;;;;;66.22;32.03;;;;;;;-2.12;100.00;101891.16;6161069;23;20032;-91
2021/12/19 01:33:47;;;;;;;59.08;29.33;;;;;;;-2.01;100.00;101890.81;6161001;23;20013;-90
2021/12/19 01:36:13;;;;;;;65.57;31.95;;;;;;;-2.06;100.00;101893.59;6157498;23;20013;-90
2021/12/19 01:38:40;;;;;;;60.65;30.42;;;;;;;-1.87;100.00;101876.50;6184395;23;20002;-91
2021/12/19 01:41:05;;;;;;;63.33;31.55;;;;;;;-1.89;100.00;101873.09;6159244;23;20012;-89
2021/12/19 01:43:32;;;;;;;59.72;29.00;;;;;;;-2.01;100.00;101872.66;6184175;23;20001;-89
2021/12/19 01:45:58;;;;;;;57.13;28.92;;;;;;;-1.84;100.00;101871.22;6159101;23;20017;-90
2021/12/19 01:48:24;;;;;;;63.20;30.65;;;;;;;-1.77;100.00;101864.06;6158667;23;20037;-89
2021/12/19 01:50:50;;;;;;;56.55;28.92;;;;;;;-1.83;100.00;101859.06;6158694;23;20036;-91
2021/12/19 01:53:17;;;;;;;53.63;28.25;;;;;;;-1.84;100.00;101855.63;6158922;23;19997;-90
2021/12/19 01:55:50;;;;;;;53.60;27.52;;;;;;;-1.80;100.00;101846.84;6184405;23;19998;-91
2021/12/19 01:58:17;;;;;;;58.03;29.08;;;;;;;-1.96;100.00;101839.59;6159212;23;20001;-89
2021/12/19 02:00:49;;;;;;;58.13;28.05;;;;;;;-2.00;100.00;101845.78;6154703;23;20064;-90
2021/12/19 02:03:15;;;;;;;55.78;27.73;;;;;;;-1.81;100.00;101839.94;6144074;23;20322;-89
2021/12/19 02:05:44;;;;;;;61.67;29.48;;;;;;;-1.84;100.00;101832.25;6178213;23;20013;-90
2021/12/19 02:08:10;;;;;;;60.28;27.95;;;;;;;-1.77;100.00;101841.53;6170354;23;20036;-86
2021/12/19 02:13:59;;;;;;;67.75;30.60;;;;;;;-1.93;100.00;101839.50;6158924;23;20029;-89
2021/12/19 02:16:25;;;;;;;86.18;30.48;;;;;;;-2.06;100.00;101839.06;6184530;23;20001;-89
2021/12/19 02:26:26;;;;;;;60.22;28.15;;;;;;;-1.89;100.00;101830.72;6167043;23;20032;-90
2021/12/19 02:37:45;;;;;;;68.47;28.95;;;;;;;-1.89;100.00;101815.94;6167863;23;20120;-88
2021/12/19 02:50:07;;;;;;;64.55;30.08;;;;;;;-1.94;100.00;101796.22;6159240;23;20014;-90
2021/12/19 02:52:32;;;;;;;58.55;30.25;;;;;;;-1.80;100.00;101800.06;6166042;23;20017;-90
2021/12/19 02:54:59;;;;;;;68.28;30.08;;;;;;;-1.86;100.00;101792.47;6161004;23;20005;-88
2021/12/19 02:57:25;;;;;;;55.85;29.75;;;;;;;-1.67;100.00;101790.09;6160495;23;20006;-90
2021/12/19 02:59:51;;;;;;;58.83;27.55;;;;;;;-1.53;100.00;101784.41;6158993;23;20437;-91
2021/12/19 03:02:18;;;;;;;54.80;29.85;;;;;;;-1.75;100.00;101792.94;6133018;23;20017;-91
2021/12/19 03:04:59;;;;;;;56.70;28.90;;;;;;;-2.02;100.00;101788.69;6133560;23;20048;-89
2021/12/19 03:07:25;;;;;;;56.90;30.30;;;;;;;-2.04;100.00;101781.84;6159800;23;20029;-91
2021/12/19 03:17:59;;;;;;;61.35;30.17;;;;;;;-2.19;100.00;101762.44;6158557;23;20016;-90
2021/12/19 03:20:29;;;;;;;58.35;29.35;;;;;;;-2.27;100.00;101761.84;6132091;23;20440;-90
2021/12/19 03:22:59;;;;;;;53.55;28.35;;;;;;;-2.23;100.00;101755.66;6108665;23;20020;-89
2021/12/19 03:25:25;;;;;;;58.03;27.40;;;;;;;-2.19;100.00;101755.47;6132409;23;20005;-90
2021/12/19 03:27:51;;;;;;;58.38;28.00;;;;;;;-2.10;100.00;101762.13;6159330;23;20006;-90
2021/12/19 03:30:17;;;;;;;50.05;26.73;;;;;;;-2.19;100.00;101760.66;6132990;23;20025;-91
2021/12/19 03:32:43;;;;;;;57.95;27.73;;;;;;;-2.21;100.00;101767.69;6158845;23;20005;-91
2021/12/19 03:35:09;;;;;;;53.22;28.42;;;;;;;-2.03;100.00;101761.03;6159484;23;20005;-91
2021/12/19 03:37:35;;;;;;;54.72;27.20;;;;;;;-2.07;100.00;101754.25;6158507;23;20459;-89
2021/12/19 03:40:11;;;;;;;54.63;28.17;;;;;;;-2.20;100.00;101752.94;6132504;23;20094;-89
2021/12/19 03:42:41;;;;;;;51.75;26.52;;;;;;;-2.06;100.00;101752.50;6158754;23;20009;-90
2021/12/19 03:45:09;;;;;;;52.33;26.52;;;;;;;-2.17;100.00;101751.09;6132215;23;20077;-92
2021/12/19 03:47:36;;;;;;;54.53;27.92;;;;;;;-2.01;100.00;101738.44;6159097;23;20017;-91
2021/12/19 03:50:04;;;;;;;49.65;25.58;;;;;;;-2.03;100.00;101739.41;6133181;23;20097;-91
2021/12/19 03:52:32;;;;;;;50.90;26.42;;;;;;;-2.01;100.00;101748.81;6159250;23;20005;-93
2021/12/19 03:54:58;;;;;;;53.58;26.13;;;;;;;-1.79;100.00;101748.94;6157868;23;20129;-91
2021/12/19 03:57:24;;;;;;;50.15;25.92;;;;;;;-1.79;100.00;101744.56;6132871;23;20445;-91
2021/12/19 03:59:50;;;;;;;51.45;26.70;;;;;;;-1.99;100.00;101734.06;6159901;23;20010;-91
2021/12/19 04:02:27;;;;;;;51.90;26.63;;;;;;;-2.05;100.00;101731.66;6159013;23;20063;-92
2021/12/19 04:05:08;;;;;;;;;;;;;;;-1.98;100.00;101722.75;6159221;23;20013;-89
2021/12/19 04:07:34;;;;;;;52.30;26.48;;;;;;;-2.02;100.00;101715.94;6158677;23;19971;-90
2021/12/19 04:10:00;;;;;;;49.28;26.55;;;;;;;-1.89;100.00;101722.41;6158270;23;20021;-88
2021/12/19 04:12:28;;;;;;;46.63;25.20;;;;;;;-1.74;100.00;101721.88;6157533;23;20006;-92
2021/12/19 04:14:55;;;;;;;46.17;24.98;;;;;;;-1.59;100.00;101729.13;6158175;23;20002;-90
2021/12/19 04:17:21;;;;;;;46.53;24.58;;;;;;;-1.57;100.00;101724.72;6132137;23;20022;-89
2021/12/19 04:19:46;;;;;;;45.72;24.83;;;;;;;-1.69;100.00;101719.13;6131570;23;20024;-90
2021/12/19 04:22:12;;;;;;;50.13;25.55;;;;;;;-1.90;100.00;101715.53;6158512;23;20009;-90
2021/12/19 04:24:38;;;;;;;52.17;27.08;;;;;;;-2.12;100.00;101719.75;6158860;23;20014;-90
2021/12/19 04:27:04;;;;;;;55.65;28.65;;;;;;;-2.32;100.00;101719.63;6156727;23;20012;-89
2021/12/19 04:29:29;;;;;;;59.63;29.50;;;;;;;-2.35;100.00;101717.94;6157088;23;20010;-88
2021/12/19 04:31:55;;;;;;;54.45;27.60;;;;;;;-2.28;100.00;101716.00;6157543;23;20013;-89
2021/12/19 04:34:22;;;;;;;58.75;28.73;;;;;;;-2.35;100.00;101706.72;6157394;23;20013;-90
2021/12/19 04:36:53;;;;;;;98.63;30.67;;;;;;;-2.38;100.00;101712.00;6131131;23;20017;-87
2021/12/19 04:43:14;;;;;;;59.83;28.63;;;;;;;-2.37;100.00;101717.16;6158950;23;20433;-88
2021/12/19 05:01:07;;;;;;;164.10;36.33;;;;;;;-2.66;100.00;101718.13;6158437;23;20010;-89
2021/12/19 05:06:08;;;;;;;149.43;34.03;;;;;;;-2.29;100.00;101725.56;6158314;23;20101;-90
2021/12/19 05:14:24;;;;;;;97.20;33.83;;;;;;;-2.42;100.00;101700.88;6132264;23;20060;-91
2021/12/19 05:16:51;;;;;;;115.88;36.83;;;;;;;-2.45;100.00;101700.97;6132200;23;20021;-89
2021/12/19 05:19:42;;;;;;;198.93;35.75;;;;;;;-2.55;100.00;101699.59;6157449;23;20409;-89
2021/12/19 05:22:08;;;;;;;160.10;34.22;;;;;;;-2.49;100.00;101693.38;6157172;23;20009;-90
2021/12/19 05:27:03;;;;;;;105.22;36.92;;;;;;;-2.36;100.00;101697.25;6157685;23;20009;-90
2021/12/19 05:29:32;;;;;;;95.95;35.72;;;;;;;-2.21;100.00;101694.13;6157466;23;20005;-90
2021/12/19 05:31:57;;;;;;;197.98;35.33;;;;;;;-2.57;100.00;101690.16;6156127;23;20108;-90
2021/12/19 05:34:23;;;;;;;106.47;32.67;;;;;;;-2.34;100.00;101685.06;6130976;23;20096;-88
2021/12/19 05:45:12;;;;;;;163.48;31.70;;;;;;;-2.42;100.00;101671.50;6161314;23;20020;-90
2021/12/19 05:47:42;;;;;;;68.85;30.60;;;;;;;-2.57;100.00;101662.47;6135436;23;20452;-89
2021/12/19 05:50:09;;;;;;;82.07;30.27;;;;;;;-2.59;100.00;101663.44;6158273;23;20017;-90
2021/12/19 05:52:35;;;;;;;113.90;30.63;;;;;;;-2.80;100.00;101660.63;6159935;23;20449;-89
2021/12/19 05:55:01;;;;;;;73.95;29.73;;;;;;;-2.59;100.00;101658.25;6157989;23;20024;-90
2021/12/19 05:57:27;;;;;;;91.95;30.27;;;;;;;-2.58;100.00;101652.16;6136166;23;20017;-90
2021/12/19 05:59:52;;;;;;;63.17;29.17;;;;;;;-2.80;100.00;101649.41;6139609;23;20014;-89
2021/12/19 06:02:18;;;;;;;57.72;30.23;;;;;;;-2.86;100.00;101644.44;6159719;23;20036;-88
2021/12/19 06:04:44;;;;;;;62.20;30.23;;;;;;;-2.90;100.00;101635.91;6159213;23;20014;-89
2021/12/19 06:07:10;;;;;;;59.55;29.10;;;;;;;-2.94;100.00;101629.09;6159825;23;20080;-83
2021/12/19 06:09:35;;;;;;;59.65;30.25;;;;;;;-2.72;100.00;101624.91;6164799;23;20013;-87
2021/12/19 06:12:01;;;;;;;62.88;30.80;;;;;;;-2.89;100.00;101635.00;6159690;23;20029;-85
2021/12/19 06:14:32;;;;;;;58.30;29.15;;;;;;;-2.85;100.00;101623.63;6166407;23;20020;-88
2021/12/19 06:16:59;;;;;;;62.63;31.58;;;;;;;-2.81;100.00;101624.38;6159532;23;20010;-86
2021/12/19 06:19:25;;;;;;;59.28;30.00;;;;;;;-2.84;100.00;101617.53;6161579;23;20036;-91
2021/12/19 06:21:50;;;;;;;61.20;29.30;;;;;;;-2.89;100.00;101614.25;6133715;23;20112;-86
2021/12/19 06:24:16;;;;;;;59.22;29.98;;;;;;;-2.73;100.00;101604.22;6162066;23;20009;-88
2021/12/19 06:26:42;;;;;;;57.72;29.90;;;;;;;-2.80;100.00;101590.59;6161908;23;20009;-87
2021/12/19 06:29:07;;;;;;;62.28;28.92;;;;;;;-2.70;100.00;101596.31;6164025;23;20009;-87
2021/12/19 06:31:33;;;;;;;62.08;29.48;;;;;;;-2.41;100.00;101603.09;6165168;23;20100;-88
2021/12/19 06:33:59;;;;;;;55.50;28.58;;;;;;;-2.57;100.00;101607.97;6162743;23;20049;-91
2021/12/19 06:36:25;;;;;;;58.63;28.85;;;;;;;-2.64;100.00;101607.34;6160785;23;20013;-86
2021/12/19 06:38:57;;;;;;;51.00;27.50;;;;;;;-2.42;100.00;101597.06;6165063;23;20340;-87
2021/12/19 06:41:23;;;;;;;56.00;28.98;;;;;;;-2.40;100.00;101602.22;6162553;23;20036;-90
2021/12/19 06:43:48;;;;;;;56.30;28.38;;;;;;;-2.44;100.00;101600.63;6164548;23;20006;-91
2021/12/19 06:46:15;;;;;;;61.35;29.52;;;;;;;-2.53;100.00;101600.94;6163585;23;20017;-90
2021/12/19 06:48:45;;;;;;;52.35;28.15;;;;;;;-2.54;100.00;101596.63;6167579;23;20005;-90
2021/12/19 06:51:11;;;;;;;55.10;29.30;;;;;;;-2.68;100.00;101590.19;6139489;23;20014;-89
2021/12/19 06:53:36;;;;;;;56.90;29.52;;;;;;;-2.68;100.00;101590.19;6163665;23;20061;-89
2021/12/19 06:56:04;;;;;;;56.65;30.20;;;;;;;-2.60;100.00;101587.34;6163476;23;20013;-91
2021/12/19 06:58:33;;;;;;;56.20;29.85;;;;;;;-2.57;100.00;101587.22;6138275;23;20017;-91
2021/12/19 07:00:58;;;;;;;57.83;29.38;;;;;;;-2.40;100.00;101584.03;6137419;23;20002;-89
2021/12/19 07:03:24;;;;;;;57.10;31.20;;;;;;;-2.47;100.00;101577.38;6165652;23;20014;-91
2021/12/19 07:05:51;;;;;;;59.05;31.33;;;;;;;-2.33;100.00;101573.41;6168918;23;20013;-90
2021/12/19 07:08:21;;;;;;;54.85;28.88;;;;;;;-2.13;100.00;101573.53;6144602;23;20016;-89
2021/12/19 07:10:49;;;;;;;52.17;28.80;;;;;;;-1.97;100.00;101562.56;6177181;23;20020;-89
2021/12/19 07:13:23;;;;;;;58.47;29.77;;;;;;;-1.86;100.00;101550.88;6256285;23;20012;-90
2021/12/19 07:15:57;;;;;;;52.30;29.23;;;;;;;-1.82;100.00;101557.63;6264386;23;20008;-90
2021/12/19 07:18:43;;;;;;;52.50;29.77;;;;;;;-1.86;100.00;101576.84;6240139;23;20050;-88
2021/12/19 07:21:14;;;;;;;54.75;29.70;;;;;;;-1.65;100.00;101565.63;6234814;23;20012;-91
2021/12/19 07:23:52;;;;;;;53.05;28.70;;;;;;;-1.58;100.00;101577.47;6231810;23;20034;-91
2021/12/19 07:26:26;;;;;;;54.03;29.05;;;;;;;-1.71;100.00;101585.81;6258921;23;20091;-86
2021/12/19 07:29:00;;;;;;;60.28;30.67;;;;;;;-1.91;100.00;101594.34;6260658;23;20031;-92
2021/12/19 07:31:30;;;;;;;104.88;31.05;;;;;;;-2.17;100.00;101581.47;6227598;23;20062;-88
2021/12/19 07:33:57;;;;;;;109.20;31.65;;;;;;;-2.44;100.00;101588.50;6257885;23;20343;-92
2021/12/19 07:36:25;;;;;;;77.15;32.22;;;;;;;-2.45;100.00;101585.97;6227806;23;20004;-90
2021/12/19 07:39:01;;;;;;;98.60;35.47;;;;;;;-2.53;100.00;101587.97;6248088;23;20079;-90
2021/12/19 07:41:26;;;;;;;81.80;34.85;;;;;;;-2.62;100.00;101589.16;6250579;23;20015;-88
2021/12/19 07:43:52;;;;;;;91.78;36.65;;;;;;;-2.56;100.00;101595.84;6225627;23;20009;-87
2021/12/19 07:46:18;;;;;;;116.03;39.13;;;;;;;-2.56;100.00;101599.31;6261432;23;20008;-87
2021/12/19 07:48:43;;;;;;;72.15;38.45;;;;;;;-2.46;100.00;101592.03;6257739;23;20491;-86
2021/12/19 07:51:09;;;;;;;77.82;37.47;;;;;;;-2.30;100.00;101585.41;6197992;23;20011;-86
2021/12/19 07:53:34;;;;;;;90.55;39.85;;;;;;;-2.52;100.00;101574.09;6248799;23;20008;-89
2021/12/19 07:56:07;;;;;;;92.93;39.92;;;;;;;-2.51;100.00;101573.19;6256229;23;20063;-89
2021/12/19 07:58:33;;;;;;;83.68;40.03;;;;;;;-2.43;100.00;101577.22;6245606;23;20012;-86
2021/12/19 08:00:59;;;;;;;76.75;40.40;;;;;;;-2.22;100.00;101578.22;6247679;23;20076;-87
2021/12/19 08:03:24;;;;;;;86.88;40.72;;;;;;;-2.30;100.00;101577.63;6221303;23;20008;-84
2021/12/19 08:05:50;;;;;;;97.00;41.35;;;;;;;-2.35;100.00;101571.72;6248049;23;20028;-85
2021/12/19 08:08:26;;;;;;;91.90;40.55;;;;;;;-2.28;100.00;101568.03;6250001;23;20032;-87
2021/12/19 08:13:38;;;;;;;82.38;40.40;;;;;;;-2.58;100.00;101562.16;6248102;23;20050;-86
2021/12/19 08:16:05;;;;;;;93.78;40.08;;;;;;;-2.57;100.00;101566.47;6249711;23;20011;-90
2021/12/19 08:18:30;;;;;;;90.10;41.55;;;;;;;-2.45;100.00;101560.81;6248272;23;20008;-87
2021/12/19 08:20:56;;;;;;;77.90;40.83;;;;;;;-2.44;100.00;101559.09;6250423;23;20004;-86
2021/12/19 08:23:29;;;;;;;75.20;39.65;;;;;;;-2.50;100.00;101562.75;6222454;23;20339;-85
2021/12/19 08:25:55;;;;;;;79.57;40.85;;;;;;;-2.39;100.00;101565.84;6221015;23;20042;-88
2021/12/19 08:28:23;;;;;;;71.53;40.15;;;;;;;-2.21;100.00;101570.34;6221428;23;20057;-84
2021/12/19 08:30:52;;;;;;;68.63;37.08;;;;;;;-2.05;100.00;101560.22;6224315;23;20513;-86
2021/12/19 08:33:18;;;;;;;64.47;35.58;;;;;;;-2.01;100.00;101574.81;6222206;23;20012;-88
2021/12/19 08:35:43;;;;;;;65.82;35.45;;;;;;;-1.89;100.00;101584.72;6248268;23;20084;-84
2021/12/19 08:38:09;;;;;;;67.55;36.22;;;;;;;-1.78;100.00;101569.59;6248025;23;20008;-84
2021/12/19 08:40:34;;;;;;;63.88;37.35;;;;;;;-1.71;100.00;101565.88;6248118;23;20062;-86
2021/12/19 08:43:00;;;;;;;65.30;36.15;;;;;;;-1.71;100.00;101565.88;6245097;23;20055;-88
2021/12/19 08:45:26;;;;;;;70.93;38.17;;;;;;;-1.55;100.00;101566.09;6220950;23;20012;-85
2021/12/19 08:47:52;;;;;;;70.65;36.45;;;;;;;-1.53;100.00;101560.88;6251830;23;20055;-84
2021/12/19 08:50:18;;;;;;;68.13;37.20;;;;;;;-1.24;100.00;101555.34;6251963;23;20058;-84
2021/12/19 08:52:45;;;;;;;64.15;36.20;;;;;;;-0.73;100.00;101544.53;6251071;23;20004;-85
2021/12/19 08:55:11;;;;;;;63.22;35.72;;;;;;;-0.77;100.00;101532.56;6224373;23;20000;-85
2021/12/19 08:57:38;;;;;;;61.60;34.75;;;;;;;-0.79;100.00;101537.81;6250398;23;20068;-86
2021/12/19 09:00:10;;;;;;;63.67;35.88;;;;;;;-0.81;100.00;101538.81;6223534;23;20035;-86
2021/12/19 09:02:44;;;;;;;65.25;35.88;;;;;;;-0.90;100.00;101532.25;6244987;23;20016;-84
2021/12/19 09:05:16;;;;;;;61.85;34.75;;;;;;;-0.63;100.00;101528.44;6231541;23;20013;-85
2021/12/19 09:07:42;;;;;;;63.05;34.58;;;;;;;-0.66;100.00;101535.53;6221401;23;20027;-86
2021/12/19 09:10:11;;;;;;;62.63;34.63;;;;;;;-0.74;100.00;101540.25;6199956;23;20017;-84
2021/12/19 09:12:47;;;;;;;62.42;35.58;;;;;;;-0.76;100.00;101535.09;6222185;23;20031;-85
2021/12/19 09:17:48;;;;;;;62.60;33.75;;;;;;;-0.62;100.00;101519.72;6256638;22;20023;-86
2021/12/19 09:20:15;;;;;;;64.90;35.08;;;;;;;-0.55;100.00;101521.16;6248713;23;20039;-85
2021/12/19 09:22:42;;;;;;;63.45;35.30;;;;;;;-0.47;100.00;101522.59;6252435;23;20012;-85
2021/12/19 09:25:11;;;;;;;60.92;34.22;;;;;;;-0.41;100.00;101527.50;6267785;23;20012;-86
2021/12/19 09:27:37;;;;;;;62.38;34.22;;;;;;;-0.36;100.00;101509.91;6232720;23;20017;-88
2021/12/19 09:30:04;;;;;;;64.82;35.45;;;;;;;-0.29;100.00;101522.59;6252277;23;20016;-87
2021/12/19 09:32:30;;;;;;;59.30;35.00;;;;;;;-0.12;100.00;101519.22;6249195;23;20016;-86
2021/12/19 09:34:55;;;;;;;66.35;37.72;;;;;;;-0.19;100.00;101518.66;6226904;23;20026;-87
2021/12/19 09:37:21;;;;;;;66.13;37.88;;;;;;;-0.23;100.00;101514.50;6252766;23;20016;-86
2021/12/19 09:39:50;;;;;;;68.30;38.28;;;;;;;-0.24;100.00;101515.44;6252830;23;20015;-89
2021/12/19 09:42:22;;;;;;;;;;;;;;;-0.26;100.00;101513.78;6252091;23;20012;-88
2021/12/19 09:44:47;;;;;;;60.60;35.33;;;;;;;-0.23;100.00;101509.28;6252714;23;20214;-87
2021/12/19 09:47:13;;;;;;;73.70;40.72;;;;;;;-0.23;100.00;101508.47;6258252;23;20060;-90
2021/12/19 09:49:39;;;;;;;62.40;37.95;;;;;;;-0.31;100.00;101502.75;6258167;23;20016;-87
2021/12/19 09:52:09;;;;;;;68.60;37.95;;;;;;;-0.28;100.00;101497.41;6253002;23;20074;-88
2021/12/19 09:54:41;;;;;;;67.18;37.72;;;;;;;-0.27;100.00;101486.09;6230243;23;20090;-89
2021/12/19 09:57:07;;;;;;;65.85;38.42;;;;;;;-0.17;100.00;101482.16;6250667;23;20031;-84
2021/12/19 09:59:38;;;;;;;59.35;34.95;;;;;;;-0.16;100.00;101481.19;6257194;23;20008;-89
2021/12/19 10:02:04;;;;;;;70.40;37.95;;;;;;;-0.14;100.00;101484.59;6255282;23;20012;-85
2021/12/19 10:04:30;;;;;;;64.80;36.72;;;;;;;-0.14;100.00;101468.97;6274090;22;20019;-88
2021/12/19 10:07:14;;;;;;;61.78;35.95;;;;;;;-0.09;100.00;101470.44;6257755;22;20011;-82
2021/12/19 10:09:55;;;;;;;64.03;36.60;;;;;;;0.01;100.00;101463.03;6284461;22;20016;-88
2021/12/19 10:14:54;;;;;;;70.47;38.22;;;;;;;0.13;100.00;101466.84;6254212;22;20012;-89
2021/12/19 10:17:21;;;;;;;68.53;37.53;;;;;;;0.25;100.00;101456.66;6259904;22;20042;-91
2021/12/19 10:19:57;;;;;;;62.42;35.88;;;;;;;0.48;100.00;101447.72;6286568;22;20003;-91
2021/12/19 10:22:25;;;;;;;62.30;36.15;;;;;;;0.50;100.00;101449.31;6261755;22;20011;-89
2021/12/19 10:24:54;;;;;;;62.65;34.97;;;;;;;0.85;100.00;101459.78;6262158;22;20015;-90
2021/12/19 10:27:43;;;;;;;59.65;33.78;;;;;;;1.00;100.00;101445.94;6259608;22;20019;-88
2021/12/19 10:30:33;;;;;;;58.33;33.72;;;;;;;1.40;100.00;101435.09;6289277;22;20055;-85
2021/12/19 10:33:10;;;;;;;55.42;32.60;;;;;;;1.50;100.00;101425.84;6256863;22;20362;-91
2021/12/19 10:35:43;;;;;;;58.35;34.03;;;;;;;1.69;100.00;101417.03;6233142;22;20012;-85
2021/12/19 10:38:30;;;;;;;55.80;33.15;;;;;;;1.79;100.00;101421.66;6281092;22;20011;-90
2021/12/19 10:41:09;;;;;;;50.65;31.40;;;;;;;1.93;100.00;101413.06;6290992;22;20015;-89
2021/12/19 10:43:47;;;;;;;57.35;35.08;;;;;;;1.70;100.00;101406.50;6290571;22;20065;-88
2021/12/19 10:46:24;;;;;;;58.47;33.50;;;;;;;1.94;100.00;101404.28;6287782;22;20460;-84
2021/12/19 10:48:53;;;;;;;55.35;33.83;;;;;;;1.97;100.00;101398.88;6294516;22;20039;-88
2021/12/19 10:51:20;;;;;;;60.75;34.42;;;;;;;1.78;100.00;101393.00;6251625;22;19996;-87
2021/12/19 10:53:57;;;;;;;56.42;34.17;;;;;;;1.74;100.00;101388.88;6302806;22;20007;-86
2021/12/19 10:56:39;;;;;;;58.55;35.28;;;;;;;1.79;100.00;101392.91;6285847;22;20053;-83
2021/12/19 10:59:13;;;;;;;58.88;36.08;;;;;;;1.81;100.00;101395.44;6278009;22;20012;-81
2021/12/19 11:01:47;;;;;;;59.17;35.85;;;;;;;1.99;100.00;101386.56;6279296;22;20134;-82
2021/12/19 11:04:21;;;;;;;62.63;37.42;;;;;;;1.90;100.00;101382.72;6279121;22;20016;-82
2021/12/19 11:06:50;;;;;;;66.65;37.63;;;;;;;1.90;100.00;101379.25;6280557;22;20073;-84
2021/12/19 11:09:29;;;;;;;58.22;37.08;;;;;;;1.91;100.00;101379.19;6282905;22;20007;-82
2021/12/19 11:11:56;;;;;;;62.40;36.63;;;;;;;2.05;100.00;101375.78;6288179;22;20023;-83
2021/12/19 11:14:25;;;;;;;68.47;40.42;;;;;;;2.24;100.00;101376.41;6287306;22;20027;-82
2021/12/19 11:16:54;;;;;;;67.50;40.45;;;;;;;2.36;100.00;101361.78;6288438;22;20014;-86
2021/12/19 11:19:20;;;;;;;77.78;42.88;;;;;;;2.37;100.00;101366.94;6287064;22;20016;-81
2021/12/19 11:21:46;;;;;;;71.40;42.25;;;;;;;2.34;100.00;101361.88;6284216;22;20086;-81
2021/12/19 11:24:15;;;;;;;64.72;40.33;;;;;;;2.40;100.00;101369.38;6279176;22;20007;-81
2021/12/19 11:26:44;;;;;;;72.70;42.97;;;;;;;2.43;100.00;101356.09;6277488;22;20461;-85
2021/12/19 11:29:12;;;;;;;71.07;43.22;;;;;;;2.41;100.00;101352.75;6276902;22;20011;-84
2021/12/19 11:31:39;;;;;;;79.88;45.08;;;;;;;2.50;100.00;101341.72;6225222;22;20027;-84
2021/12/19 11:34:24;;;;;;;75.18;43.83;;;;;;;2.41;100.00;101328.34;6249019;22;20012;-81
2021/12/19 11:37:07;;;;;;;73.82;43.78;;;;;;;2.33;100.00;101333.19;6277281;22;20011;-82
2021/12/19 11:39:38;;;;;;;73.60;43.85;;;;;;;2.38;100.00;101315.47;6274960;22;20116;-82
2021/12/19 11:42:11;;;;;;;75.00;44.85;;;;;;;2.43;100.00;101309.03;6248447;22;20046;-84
2021/12/19 11:47:53;;;;;;;78.50;45.55;;;;;;;2.71;100.00;101302.13;6275986;22;20018;-82
2021/12/19 11:50:26;;;;;;;82.43;46.47;;;;;;;2.63;100.00;101289.50;6275918;22;20038;-82
2021/12/19 11:52:55;;;;;;;79.78;45.80;;;;;;;2.62;100.00;101279.16;6277096;22;20087;-83
2021/12/19 11:55:23;;;;;;;82.57;47.17;;;;;;;2.51;100.00;101274.56;6276467;22;20412;-82
2021/12/19 11:58:13;;;;;;;94.07;49.65;;;;;;;2.55;100.00;101271.66;6277146;22;20018;-83
2021/12/19 12:01:08;;;;;;;93.28;50.72;;;;;;;2.51;100.00;101259.72;6257684;22;21051;-86
2021/12/19 12:03:59;;;;;;;111.20;55.63;;;;;;;2.63;100.00;101252.03;6227153;22;20015;-88
2021/12/19 12:06:29;;;;;;;105.07;54.35;;;;;;;2.57;100.00;101255.88;6273837;22;20012;-83
2021/12/19 12:09:23;;;;;;;94.95;51.83;;;;;;;2.66;100.00;101246.59;6224926;22;20467;-84
2021/12/19 12:12:03;;;;;;;104.55;52.53;;;;;;;2.66;100.00;101230.91;6275961;22;20381;-85
2021/12/19 12:14:34;;;;;;;100.47;51.50;;;;;;;2.75;100.00;101232.97;6277297;22;20107;-85
2021/12/19 12:17:04;;;;;;;94.07;49.38;;;;;;;2.78;100.00;101222.31;6277106;22;20261;-84
2021/12/19 12:19:43;;;;;;;92.10;49.72;;;;;;;3.06;100.00;101211.78;6276973;22;20422;-85
2021/12/19 12:22:24;;;;;;;103.63;50.85;;;;;;;3.03;100.00;101209.34;6277338;22;20003;-84
2021/12/19 12:25:15;;;;;;;107.95;54.97;;;;;;;3.07;100.00;101206.47;6277114;22;20015;-87
2021/12/19 12:27:44;;;;;;;125.53;58.53;;;;;;;3.18;100.00;101207.56;6250445;22;20090;-84
2021/12/19 12:30:14;;;;;;;113.53;56.95;;;;;;;3.37;100.00;101198.41;6251075;22;20015;-85
2021/12/19 12:32:41;;;;;;;131.95;61.95;;;;;;;3.41;100.00;101199.91;6276674;22;20431;-84
2021/12/19 12:35:11;;;;;;;110.97;56.08;;;;;;;3.49;100.00;101191.50;6288744;22;20108;-81
2021/12/19 12:37:38;;;;;;;99.07;53.58;;;;;;;3.64;100.00;101188.75;6279160;22;20165;-84
2021/12/19 12:40:26;;;;;;;108.57;55.38;;;;;;;3.84;100.00;101190.03;6278358;22;20012;-86
2021/12/19 12:42:59;;;;;;;102.55;54.17;;;;;;;3.91;100.00;101180.78;6277097;22;20392;-83
2021/12/19 12:45:26;;;;;;;99.45;54.13;;;;;;;3.90;100.00;101180.91;6277194;22;20044;-84
2021/12/19 12:47:52;;;;;;;100.78;53.80;;;;;;;4.04;100.00;101171.13;6277512;22;20034;-85